createdAt,value
2023-03-17T00:01:54.207Z,2.88
2023-03-17T00:04:24.060Z,4.00
2023-03-17T00:06:51.731Z,5.00
2023-03-17T00:09:19.427Z,8.43
2023-03-17T00:11:46.934Z,5.18
2023-03-17T00:14:14.278Z,4.05
2023-03-17T00:16:43.782Z,5.23
2023-03-17T00:19:18.301Z,5.30
2023-03-17T00:21:46.998Z,4.50
2023-03-17T00:24:15.201Z,3.65
2023-03-17T00:26:42.578Z,6.93
2023-03-17T00:29:09.906Z,3.97
2023-03-17T00:31:37.043Z,6.35
2023-03-17T00:34:03.796Z,6.90
2023-03-17T00:36:31.887Z,4.22
2023-03-17T00:38:59.316Z,6.05
2023-03-17T00:41:27.148Z,3.37
2023-03-17T00:43:54.126Z,7.35
2023-03-17T00:46:35.985Z,4.70
2023-03-17T00:49:15.614Z,4.90
2023-03-17T00:51:43.872Z,5.55
2023-03-17T00:54:11.519Z,4.87
2023-03-17T00:56:39.490Z,4.35
2023-03-17T00:59:14.384Z,5.75
2023-03-17T01:01:41.879Z,4.00
2023-03-17T01:04:10.693Z,6.32
2023-03-17T01:06:37.992Z,5.27
2023-03-17T01:09:05.121Z,4.10
2023-03-17T01:11:32.827Z,5.13
2023-03-17T01:13:59.549Z,3.35
2023-03-17T01:16:26.966Z,6.93
2023-03-17T01:18:53.873Z,5.13
2023-03-17T01:21:20.602Z,7.07
2023-03-17T01:23:47.373Z,4.07
2023-03-17T01:26:14.056Z,4.28
2023-03-17T01:28:40.841Z,4.05
2023-03-17T01:31:07.539Z,8.17
2023-03-17T01:33:35.141Z,5.90
2023-03-17T01:36:02.340Z,4.63
2023-03-17T01:38:29.712Z,4.63
2023-03-17T01:40:56.752Z,7.85
2023-03-17T01:43:29.465Z,3.00
2023-03-17T01:46:15.018Z,5.53
2023-03-17T01:48:44.641Z,3.88
2023-03-17T01:51:14.970Z,5.20
2023-03-17T01:53:41.993Z,5.10
2023-03-17T01:56:09.579Z,4.57
2023-03-17T01:58:36.445Z,4.97
2023-03-17T02:01:03.266Z,7.60
2023-03-17T02:03:29.980Z,7.00
2023-03-17T02:05:57.883Z,6.22
2023-03-17T02:08:24.691Z,7.80
2023-03-17T02:10:52.426Z,4.38
2023-03-17T02:13:19.369Z,9.90
2023-03-17T02:15:48.532Z,3.85
2023-03-17T02:18:17.691Z,4.97
2023-03-17T02:20:44.622Z,4.47
2023-03-17T02:23:11.817Z,3.13
2023-03-17T02:25:39.866Z,9.30
2023-03-17T02:28:10.812Z,3.00
2023-03-17T02:30:37.653Z,5.75
2023-03-17T02:33:04.432Z,6.03
2023-03-17T02:35:31.490Z,5.28
2023-03-17T02:37:58.308Z,5.53
2023-03-17T02:40:25.038Z,4.93
2023-03-17T02:42:51.968Z,7.78
2023-03-17T02:45:18.711Z,5.83
2023-03-17T02:47:45.946Z,4.32
2023-03-17T02:50:18.891Z,5.32
2023-03-17T02:52:45.618Z,5.28
2023-03-17T02:55:12.295Z,2.95
2023-03-17T02:57:39.017Z,6.47
2023-03-17T03:00:06.373Z,5.40
2023-03-17T03:02:33.351Z,4.07
2023-03-17T03:05:00.049Z,6.13
2023-03-17T03:07:26.860Z,4.38
2023-03-17T03:09:53.516Z,3.33
2023-03-17T03:12:20.431Z,6.53
2023-03-17T03:14:47.671Z,3.97
2023-03-17T03:17:15.324Z,4.93
2023-03-17T03:19:42.270Z,4.45
2023-03-17T03:22:09.102Z,2.03
2023-03-17T03:24:36.245Z,3.25
2023-03-17T03:27:03.090Z,5.35
2023-03-17T03:29:29.966Z,3.30
2023-03-17T03:31:56.626Z,4.15
2023-03-17T03:34:23.342Z,6.07
2023-03-17T03:36:50.043Z,3.22
2023-03-17T03:39:16.789Z,4.65
2023-03-17T03:41:43.551Z,5.05
2023-03-17T03:44:10.591Z,2.40
2023-03-17T03:46:37.353Z,6.83
2023-03-17T03:49:04.064Z,3.60
2023-03-17T03:51:30.984Z,4.95
2023-03-17T03:53:57.722Z,4.50
2023-03-17T03:56:24.589Z,3.03
2023-03-17T03:58:51.514Z,2.83
2023-03-17T04:01:18.626Z,5.28
2023-03-17T04:03:47.360Z,3.33
2023-03-17T04:06:14.425Z,4.38
2023-03-17T04:08:41.089Z,4.25
2023-03-17T04:11:08.729Z,5.27
2023-03-17T04:13:35.984Z,4.07
2023-03-17T04:16:03.348Z,4.47
2023-03-17T04:18:31.659Z,3.42
2023-03-17T04:20:58.512Z,4.25
2023-03-17T04:23:25.345Z,3.10
2023-03-17T04:25:52.817Z,2.45
2023-03-17T04:28:20.499Z,5.68
2023-03-17T04:30:47.236Z,2.25
2023-03-17T04:33:14.087Z,3.28
2023-03-17T04:35:41.532Z,5.13
2023-03-17T04:38:09.618Z,4.35
2023-03-17T04:40:36.330Z,5.45
2023-03-17T04:43:03.616Z,3.85
2023-03-17T04:45:30.644Z,6.18
2023-03-17T04:47:57.363Z,4.07
2023-03-17T04:50:24.102Z,3.10
2023-03-17T04:52:50.879Z,8.05
2023-03-17T04:55:17.610Z,4.60
2023-03-17T04:57:44.763Z,4.43
2023-03-17T05:00:12.764Z,4.20
2023-03-17T05:02:39.560Z,4.07
2023-03-17T05:05:06.403Z,8.10
2023-03-17T05:07:34.215Z,4.63
2023-03-17T05:10:02.094Z,3.15
2023-03-17T05:12:28.940Z,6.20
2023-03-17T05:14:55.739Z,4.95
2023-03-17T05:17:22.497Z,3.90
2023-03-17T05:19:49.214Z,2.85
2023-03-17T05:22:16.250Z,3.42
2023-03-17T05:24:43.068Z,4.73
2023-03-17T05:27:09.861Z,6.40
2023-03-17T05:29:36.607Z,4.05
2023-03-17T05:32:03.518Z,4.43
2023-03-17T05:34:31.256Z,6.93
2023-03-17T05:36:57.960Z,4.37
2023-03-17T05:39:24.716Z,5.00
2023-03-17T05:41:51.583Z,8.63
2023-03-17T05:44:18.310Z,7.75
2023-03-17T05:46:45.031Z,7.13
2023-03-17T05:49:12.705Z,12.07
2023-03-17T05:51:39.434Z,6.10
2023-03-17T05:54:06.167Z,11.57
2023-03-17T05:56:33.475Z,7.13
2023-03-17T05:59:01.689Z,7.05
2023-03-17T06:01:28.939Z,11.60
2023-03-17T06:03:55.795Z,8.70
2023-03-17T06:06:24.548Z,10.27
2023-03-17T06:08:51.706Z,10.82
2023-03-17T06:11:20.682Z,8.15
2023-03-17T06:13:47.811Z,13.50
2023-03-17T06:16:14.599Z,10.88
2023-03-17T06:18:41.501Z,8.15
2023-03-17T06:21:08.225Z,10.52
2023-03-17T06:23:34.961Z,10.65
2023-03-17T06:26:01.678Z,14.67
2023-03-17T06:28:28.405Z,18.98
2023-03-17T06:30:55.156Z,15.50
2023-03-17T06:33:21.920Z,17.20
2023-03-17T06:35:48.720Z,22.60
2023-03-17T06:38:15.507Z,15.13
2023-03-17T06:40:42.349Z,18.10
2023-03-17T06:43:09.474Z,19.15
2023-03-17T06:45:36.350Z,20.42
2023-03-17T06:48:03.626Z,19.67
2023-03-17T06:50:34.230Z,20.97
2023-03-17T06:53:01.920Z,19.27
2023-03-17T06:55:29.528Z,23.65
2023-03-17T06:57:58.952Z,26.42
2023-03-17T07:00:26.187Z,18.73
2023-03-17T07:02:53.062Z,13.33
2023-03-17T07:05:23.502Z,10.93
2023-03-17T07:07:50.713Z,14.80
2023-03-17T07:10:18.066Z,13.75
2023-03-17T07:12:45.465Z,9.20
2023-03-17T07:15:12.906Z,8.70
2023-03-17T07:17:39.707Z,12.32
2023-03-17T07:20:06.863Z,10.38
2023-03-17T07:22:33.733Z,7.15
2023-03-17T07:25:00.685Z,16.20
2023-03-17T07:27:27.570Z,11.37
2023-03-17T07:29:54.327Z,8.63
2023-03-17T07:32:21.184Z,7.60
2023-03-17T07:34:47.982Z,7.25
2023-03-17T07:37:15.316Z,6.53
2023-03-17T07:39:42.609Z,8.37
2023-03-17T07:42:12.187Z,6.15
2023-03-17T07:44:41.503Z,6.68
2023-03-17T07:47:09.060Z,7.40
2023-03-17T07:49:41.706Z,6.63
2023-03-17T07:52:10.375Z,7.33
2023-03-17T07:54:37.651Z,9.27
2023-03-17T07:57:05.557Z,8.93
2023-03-17T07:59:32.754Z,7.72
2023-03-17T08:02:01.351Z,6.85
2023-03-17T08:04:28.532Z,10.20
2023-03-17T08:06:55.570Z,9.65
2023-03-17T08:09:22.362Z,8.50
2023-03-17T08:11:49.651Z,8.10
2023-03-17T08:14:16.430Z,7.78
2023-03-17T08:27:52.984Z,6.38
2023-03-17T08:30:20.796Z,11.20
2023-03-17T08:32:48.196Z,11.77
2023-03-17T08:35:16.079Z,9.45
2023-03-17T08:37:47.580Z,9.60
2023-03-17T08:40:17.211Z,5.43
2023-03-17T08:42:48.601Z,12.65
2023-03-17T08:45:18.408Z,6.90
2023-03-17T08:47:46.823Z,8.38
2023-03-17T08:50:19.947Z,8.27
2023-03-17T08:52:48.666Z,10.77
2023-03-17T08:55:16.620Z,7.70
2023-03-17T08:57:44.788Z,8.03
2023-03-17T09:00:16.121Z,11.18
2023-03-17T09:02:43.561Z,8.32
2023-03-17T09:05:13.766Z,9.93
2023-03-17T09:07:41.811Z,8.85
2023-03-17T09:10:10.936Z,6.90
2023-03-17T09:12:38.286Z,6.38
2023-03-17T09:15:05.973Z,8.27
2023-03-17T09:17:34.649Z,11.25
2023-03-17T09:20:01.477Z,6.88
2023-03-17T09:22:30.879Z,10.27
2023-03-17T09:24:58.157Z,5.90
2023-03-17T09:27:24.976Z,6.82
2023-03-17T09:29:51.915Z,6.68
2023-03-17T09:32:18.842Z,4.20
2023-03-17T09:34:46.305Z,5.17
2023-03-17T09:37:13.623Z,6.65
2023-03-17T09:39:41.411Z,4.75
2023-03-17T09:42:16.805Z,2.58
2023-03-17T09:45:05.451Z,6.15
2023-03-17T09:47:48.075Z,4.43
2023-03-17T09:50:39.602Z,5.25
2023-03-17T09:53:15.810Z,5.57
2023-03-17T09:55:43.881Z,7.43
2023-03-17T09:58:11.779Z,3.78
2023-03-17T10:00:39.612Z,5.83
2023-03-17T10:03:08.150Z,5.93
2023-03-17T10:05:36.298Z,4.70
2023-03-17T10:08:30.514Z,4.15
2023-03-17T10:11:23.545Z,5.20
2023-03-17T10:14:09.498Z,4.93
2023-03-17T10:16:46.858Z,5.50
2023-03-17T10:19:35.423Z,5.38
2023-03-17T10:22:14.218Z,4.00
2023-03-17T10:24:45.031Z,3.55
2023-03-17T10:27:15.322Z,4.60
2023-03-17T10:29:42.142Z,5.43
2023-03-17T10:32:12.431Z,4.00
2023-03-17T10:34:41.502Z,8.18
2023-03-17T10:37:09.601Z,3.83
2023-03-17T10:39:44.888Z,5.50
2023-03-17T10:42:20.705Z,4.70
2023-03-17T10:44:59.402Z,4.88
2023-03-17T10:47:31.724Z,4.07
2023-03-17T10:50:05.613Z,4.43
2023-03-17T10:52:37.140Z,5.50
2023-03-17T10:55:07.448Z,4.88
2023-03-17T10:57:37.446Z,3.95
2023-03-17T11:00:16.889Z,7.43
2023-03-17T11:02:48.167Z,5.63
2023-03-17T11:05:27.578Z,9.93
2023-03-17T11:08:12.001Z,4.78
2023-03-17T11:10:42.002Z,5.07
2023-03-17T11:13:10.276Z,4.63
2023-03-17T11:15:46.783Z,4.50
2023-03-17T11:18:22.963Z,6.57
2023-03-17T11:20:58.650Z,4.82
2023-03-17T11:23:51.059Z,6.53
2023-03-17T11:26:41.383Z,4.18
2023-03-17T11:29:21.028Z,5.00
2023-03-17T11:31:54.384Z,5.87
2023-03-17T11:34:47.716Z,7.10
2023-03-17T11:37:42.142Z,4.10
2023-03-17T11:40:29.985Z,12.77
2023-03-17T11:43:04.148Z,5.68
2023-03-17T11:46:09.069Z,12.47
2023-03-17T11:48:44.818Z,5.72
2023-03-17T11:51:27.571Z,5.35
2023-03-17T11:53:58.776Z,4.82
2023-03-17T11:56:44.111Z,4.53
2023-03-17T11:59:36.173Z,4.53
2023-03-17T12:02:11.217Z,4.53
2023-03-17T12:04:46.926Z,4.95
2023-03-17T12:07:18.446Z,5.10
2023-03-17T12:09:50.103Z,4.88
2023-03-17T12:12:27.051Z,5.63
2023-03-17T12:14:54.352Z,8.75
2023-03-17T12:17:31.774Z,5.35
2023-03-17T12:20:09.650Z,8.27
2023-03-17T12:22:55.909Z,6.28
2023-03-17T12:25:59.351Z,5.40
2023-03-17T12:28:31.161Z,6.85
2023-03-17T12:31:07.530Z,4.53
2023-03-17T12:33:44.819Z,4.25
2023-03-17T12:36:14.853Z,4.72
2023-03-17T12:38:45.404Z,8.63
2023-03-17T12:41:28.909Z,5.40
2023-03-17T12:44:07.924Z,7.07
2023-03-17T12:47:00.967Z,4.93
2023-03-17T12:50:02.525Z,9.55
2023-03-17T12:52:48.083Z,6.07
2023-03-17T12:55:17.338Z,6.18
2023-03-17T12:57:47.294Z,4.57
2023-03-17T13:00:25.255Z,6.95
2023-03-17T13:03:08.481Z,5.60
2023-03-17T13:05:37.339Z,5.77
2023-03-17T13:08:07.629Z,6.50
2023-03-17T13:10:40.854Z,5.32
2023-03-17T13:13:12.062Z,4.38
2023-03-17T13:15:39.722Z,6.05
2023-03-17T13:18:12.248Z,6.27
2023-03-17T13:20:44.855Z,6.20
2023-03-17T13:23:11.543Z,4.82
2023-03-17T13:25:38.334Z,5.20
2023-03-17T13:28:13.825Z,5.85
2023-03-17T13:30:40.475Z,6.37
2023-03-17T13:33:10.244Z,4.68
2023-03-17T13:35:41.970Z,5.68
2023-03-17T13:38:39.369Z,5.38
2023-03-17T13:41:44.459Z,6.10
2023-03-17T13:44:38.515Z,6.43
2023-03-17T13:47:42.166Z,5.15
2023-03-17T13:50:18.298Z,5.70
2023-03-17T13:53:03.845Z,5.43
2023-03-17T13:55:38.080Z,7.15
2023-03-17T13:58:10.934Z,6.80
2023-03-17T14:00:51.871Z,5.03
2023-03-17T14:03:41.312Z,5.68
2023-03-17T14:06:09.347Z,5.68
2023-03-17T14:08:38.649Z,6.07
2023-03-17T14:11:36.664Z,6.07
2023-03-17T14:14:32.533Z,8.82
2023-03-17T14:17:15.390Z,5.07
2023-03-17T14:19:59.784Z,6.93
2023-03-17T14:22:26.807Z,6.38
2023-03-17T14:24:55.478Z,6.80
2023-03-17T14:27:24.643Z,5.82
2023-03-17T14:29:52.414Z,5.53
2023-03-17T14:32:21.610Z,11.30
2023-03-17T14:34:55.544Z,6.78
2023-03-17T14:37:23.123Z,6.33
2023-03-17T14:39:55.194Z,5.03
2023-03-17T14:42:27.825Z,5.93
2023-03-17T14:45:07.301Z,6.50
2023-03-17T14:47:42.716Z,5.85
2023-03-17T14:50:27.739Z,5.17
2023-03-17T14:52:55.304Z,5.00
2023-03-17T14:55:22.384Z,6.47
2023-03-17T14:57:51.497Z,5.32
2023-03-17T15:00:33.971Z,6.10
2023-03-17T15:03:05.325Z,7.93
2023-03-17T15:05:41.339Z,5.60
2023-03-17T15:08:36.589Z,6.10
2023-03-17T15:11:04.887Z,7.72
2023-03-17T15:13:35.121Z,13.63
2023-03-17T15:16:21.721Z,5.87
2023-03-17T15:18:50.893Z,5.93
2023-03-17T15:21:48.632Z,5.70
2023-03-17T15:24:39.302Z,6.70
2023-03-17T15:27:15.656Z,6.53
2023-03-17T15:29:42.558Z,5.57
2023-03-17T15:32:20.330Z,7.95
2023-03-17T15:34:51.487Z,8.35
2023-03-17T15:37:19.280Z,8.55
2023-03-17T15:39:47.034Z,6.55
2023-03-17T15:42:14.419Z,7.30
2023-03-17T15:44:41.196Z,5.72
2023-03-17T15:47:08.553Z,15.75
2023-03-17T15:49:35.244Z,6.68
2023-03-17T15:52:02.010Z,4.32
2023-03-17T15:54:28.727Z,5.83
2023-03-17T15:56:55.752Z,7.72
2023-03-17T15:59:22.458Z,6.55
2023-03-17T16:01:49.282Z,4.97
2023-03-17T16:04:17.898Z,6.75
2023-03-17T16:06:44.753Z,9.73
2023-03-17T16:09:15.789Z,4.32
2023-03-17T16:11:42.519Z,5.43
2023-03-17T16:14:10.225Z,4.60
2023-03-17T16:16:39.323Z,3.08
2023-03-17T16:19:06.701Z,6.50
2023-03-17T16:21:33.494Z,10.60
2023-03-17T16:24:00.448Z,3.95
2023-03-17T16:26:27.209Z,10.10
2023-03-17T16:28:54.028Z,8.60
2023-03-17T16:31:31.565Z,5.07
2023-03-17T16:33:58.372Z,5.80
2023-03-17T16:36:25.576Z,6.95
2023-03-17T16:38:52.852Z,9.80
2023-03-17T16:41:27.466Z,7.15
2023-03-17T16:43:59.312Z,11.10
2023-03-17T16:46:26.958Z,7.63
2023-03-17T16:48:53.859Z,8.02
2023-03-17T16:51:20.673Z,5.40
2023-03-17T16:53:47.383Z,5.53
2023-03-17T16:56:17.282Z,8.47
2023-03-17T16:58:45.052Z,5.72
2023-03-17T17:01:19.143Z,8.05
2023-03-17T17:03:46.464Z,8.02
2023-03-17T17:06:14.449Z,6.57
2023-03-17T17:08:45.257Z,9.10
2023-03-17T17:11:13.266Z,8.05
2023-03-17T17:13:41.349Z,6.88
2023-03-17T17:16:16.367Z,7.30
2023-03-17T17:18:43.164Z,17.33
2023-03-17T17:21:09.886Z,9.87
2023-03-17T17:23:36.597Z,7.25
2023-03-17T17:26:03.282Z,7.85
2023-03-17T17:28:30.042Z,16.23
2023-03-17T17:30:58.498Z,11.48
2023-03-17T17:33:25.907Z,9.30
2023-03-17T17:35:53.096Z,26.00
2023-03-17T17:38:28.885Z,19.38
2023-03-17T17:40:57.914Z,17.17
2023-03-17T17:43:25.137Z,21.15
2023-03-17T17:45:52.535Z,24.63
2023-03-17T17:48:22.576Z,18.42
2023-03-17T17:50:50.652Z,30.92
2023-03-17T17:53:18.095Z,24.38
2023-03-17T17:55:46.960Z,20.00
2023-03-17T17:58:16.316Z,18.50
2023-03-17T18:00:43.370Z,17.88
2023-03-17T18:03:10.146Z,15.23
2023-03-17T18:05:37.302Z,18.20
2023-03-17T18:08:04.660Z,14.88
2023-03-17T18:10:32.394Z,10.33
2023-03-17T18:12:59.522Z,16.70
2023-03-17T18:15:27.397Z,18.23
2023-03-17T18:17:54.510Z,11.57
2023-03-17T18:20:22.544Z,12.93
2023-03-17T18:22:50.271Z,21.10
2023-03-17T18:25:17.852Z,21.63
2023-03-17T18:27:44.738Z,18.30
2023-03-17T18:30:14.382Z,14.70
2023-03-17T18:32:42.937Z,15.13
2023-03-17T18:35:13.004Z,18.10
2023-03-17T18:37:39.812Z,10.20
2023-03-17T18:40:14.249Z,9.80
2023-03-17T18:42:41.503Z,11.80
2023-03-17T18:45:09.910Z,12.88
2023-03-17T18:47:38.806Z,14.13
2023-03-17T18:50:07.062Z,9.43
2023-03-17T18:52:35.109Z,14.82
2023-03-17T18:55:02.068Z,11.23
2023-03-17T18:57:28.826Z,14.20
2023-03-17T18:59:55.902Z,14.23
2023-03-17T19:02:22.779Z,12.02
2023-03-17T19:04:49.645Z,14.07
2023-03-17T19:07:17.880Z,12.80
2023-03-17T19:09:44.927Z,11.35
2023-03-17T19:12:12.190Z,16.40
2023-03-17T19:14:39.863Z,15.45
2023-03-17T19:17:07.452Z,11.73
2023-03-17T19:19:35.406Z,13.18
2023-03-17T19:22:03.801Z,13.98
2023-03-17T19:24:32.156Z,12.57
2023-03-17T19:26:58.938Z,15.82
2023-03-17T19:29:27.677Z,12.77
2023-03-17T19:31:54.364Z,14.52
2023-03-17T19:34:21.311Z,12.77
2023-03-17T19:36:48.225Z,14.17
2023-03-17T19:39:15.400Z,15.73
2023-03-17T19:41:42.246Z,16.92
2023-03-17T19:44:09.004Z,12.45
2023-03-17T19:46:37.004Z,13.07
2023-03-17T19:49:04.816Z,15.17
2023-03-17T19:51:32.881Z,14.05
2023-03-17T19:54:00.205Z,13.52
2023-03-17T19:56:27.957Z,16.38
2023-03-17T19:58:55.462Z,16.23
2023-03-17T20:01:22.972Z,14.83
2023-03-17T20:03:50.025Z,16.27
2023-03-17T20:06:16.972Z,15.82
2023-03-17T20:08:44.484Z,20.60
2023-03-17T20:11:12.422Z,14.77
2023-03-17T20:13:39.483Z,15.07
2023-03-17T20:16:07.089Z,16.17
2023-03-17T20:18:34.306Z,16.27
2023-03-17T20:21:05.175Z,14.75
2023-03-17T20:23:32.135Z,14.20
2023-03-17T20:25:58.902Z,16.30
2023-03-17T20:28:25.623Z,17.73
2023-03-17T20:30:52.496Z,15.98
2023-03-17T20:33:19.392Z,18.00
2023-03-17T20:35:47.364Z,15.98
2023-03-17T20:38:14.864Z,16.30
2023-03-17T20:40:42.497Z,12.00
2023-03-17T20:43:09.502Z,14.05
2023-03-17T20:45:37.070Z,12.55
2023-03-17T20:48:06.083Z,14.25
2023-03-17T20:50:34.428Z,14.27
2023-03-17T20:53:01.740Z,16.90
2023-03-17T20:55:30.066Z,13.43
2023-03-17T20:57:58.740Z,10.88
2023-03-17T21:00:26.230Z,12.63
2023-03-17T21:02:53.214Z,14.03
2023-03-17T21:05:23.206Z,13.77
2023-03-17T21:07:50.121Z,9.20
2023-03-17T21:10:17.409Z,13.02
2023-03-17T21:12:44.308Z,13.75
2023-03-17T21:15:12.904Z,15.33
2023-03-17T21:17:40.241Z,16.63
2023-03-17T21:20:09.557Z,11.95
2023-03-17T21:22:36.879Z,13.02
2023-03-17T21:25:04.653Z,11.75
2023-03-17T21:27:31.381Z,13.60
2023-03-17T21:29:58.086Z,12.77
2023-03-17T21:32:25.038Z,12.50
2023-03-17T21:34:52.012Z,13.32
2023-03-17T21:37:18.823Z,15.07
2023-03-17T21:39:45.895Z,15.97
2023-03-17T21:42:12.630Z,18.27
2023-03-17T21:44:39.788Z,11.82
2023-03-17T21:47:07.652Z,15.50
2023-03-17T21:49:34.430Z,19.80
2023-03-17T21:52:01.301Z,12.83
2023-03-17T21:54:28.518Z,11.57
2023-03-17T21:56:55.280Z,13.25
2023-03-17T21:59:22.078Z,12.45
2023-03-17T22:01:52.117Z,11.02
2023-03-17T22:04:19.170Z,15.77
2023-03-17T22:06:45.946Z,10.32
2023-03-17T22:09:13.052Z,11.30
2023-03-17T22:11:39.762Z,11.15
2023-03-17T22:14:06.593Z,9.05
2023-03-17T22:16:33.752Z,11.63
2023-03-17T22:19:00.532Z,10.80
2023-03-17T22:21:28.775Z,13.57
2023-03-17T22:23:55.646Z,10.63
2023-03-17T22:26:22.983Z,15.23
2023-03-17T22:28:50.352Z,17.47
2023-03-17T22:31:24.528Z,13.07
2023-03-17T22:33:54.176Z,9.57
2023-03-17T22:36:21.438Z,11.70
2023-03-17T22:38:48.309Z,14.43
2023-03-17T22:41:17.954Z,15.93
2023-03-17T22:43:45.062Z,13.75
2023-03-17T22:46:11.944Z,11.95
2023-03-17T22:48:40.129Z,12.57
2023-03-17T22:51:10.629Z,12.02
2023-03-17T22:53:38.276Z,11.30
2023-03-17T22:56:06.078Z,15.50
2023-03-17T22:58:32.773Z,8.48
2023-03-17T23:00:59.953Z,8.35
2023-03-17T23:03:27.618Z,10.75
2023-03-17T23:05:57.410Z,14.93
2023-03-17T23:08:25.124Z,10.02
2023-03-17T23:10:51.937Z,10.05
2023-03-17T23:13:20.054Z,11.38
2023-03-17T23:15:47.495Z,14.02
2023-03-17T23:18:14.622Z,14.67
2023-03-17T23:20:41.967Z,10.48
2023-03-17T23:23:09.201Z,10.55
2023-03-17T23:25:36.617Z,10.60
2023-03-17T23:28:04.062Z,12.23
2023-03-17T23:30:31.640Z,11.87
2023-03-17T23:32:58.805Z,12.85
2023-03-17T23:35:25.877Z,13.88
2023-03-17T23:37:52.587Z,8.80
2023-03-17T23:40:19.450Z,10.18
2023-03-17T23:42:50.217Z,9.23
2023-03-17T23:45:18.094Z,9.90
2023-03-17T23:47:46.668Z,10.73
2023-03-17T23:50:14.556Z,12.90
2023-03-17T23:52:42.498Z,11.55
2023-03-17T23:55:11.834Z,12.13
2023-03-17T23:57:39.105Z,11.00
